Aurora State Airport
KUAO : rendu visible

Aérodrome :











RETROUVEZ-NOUS SUR...

 
LOGIN :

S'inscrire | Disclaimer

   EN    FR    IT 

 









Légende :    VFR   VFR Marginal   IFR   IFR Intensif   IFR Très Intensif
Visi : 
Plafond : 
>= 8 km
>= 3000ft
5 à 8 km
1000 à 3000 ft
1500m à 5 km
500 à 1000 ft
800 à 1500m
200 à 500 ft
< 800m
< 200 ft
Symboles :   Orages  Brouillard  Fortes neiges  Fortes précipitations  Vent > 20 kt






- Altitude de l'aérodrome : 200 ft


KUAO - Aurora State

DERNIER METAR :
  • 151800Z 21005KT 10SM SCT008 BKN027 OVC055 12/11 A3016 RMK AO2 RAE1754 P0000 T01220106

METARs EXPIRÉS :
  • 151753Z 21008KT 2 1/2SM -RA BR FEW008 BKN029 OVC034 12/11 A3015 RMK AO2 SLP210 P0002 60013 T01220106 10122 20089 51021
  • 151700Z 20007KT 2 1/2SM -RA BR FEW008 BKN055 OVC065 12/10 A3013 RMK AO2 VIS 2V4 P0001 T01170100
  • 151553Z 20004KT 10SM FEW007 BKN032 OVC075 12/10 A3011 RMK AO2 SLP197 T01170100
  • 151514Z 21005KT 10SM SCT007 BKN032 OVC075 11/09 A3010 RMK AO2 T01110094

TAF KUAO
Valide du 15 à 18h jusqu'au 16 à 18h UTC


151746Z 1518/1618 VRB03KT 3SM -RA BR BKN008 OVC022
FM151900 20005KT 5SM -SHRA BKN012 OVC025
FM152300 20005KT P6SM VCSH SCT025 BKN050
FM160700 VRB02KT 3SM BR OVC022
FM161300 00000KT 3/4SM BR SCT003 OVC009
FM161700 VRB03KT 3SM BR SCT009 OVC012



MET'MAP, la Météo Aéronautique d'un coup d'oeil ! - Copyright ORBIFLY Décembre 2007 - Disclaimer

ORBIFLY MET'MAP TEAM :

Programmation & Développement : Alexandra Zaïnal
Conception & Développement : Baudouin d'Aumeries
Co-Programmation & Développement : Marc-Olivier Méhu
Soutien technique & logistique : Manuel Goepfert

Contact : metmap@orbifly.com




SOURCES & CREDITS :

   NOAA       Earth
Advisory